sensor_id;sensor_type;location;lat;lon;timestamp;temperature;humidity
65826;DHT22;52586;-43.152;172.732;2023-08-07T00:00:32;14.00;60.50
65826;DHT22;52586;-43.152;172.732;2023-08-07T00:03:02;14.00;60.60
65826;DHT22;52586;-43.152;172.732;2023-08-07T00:05:35;14.00;60.80
65826;DHT22;52586;-43.152;172.732;2023-08-07T00:08:05;14.00;61.00
65826;DHT22;52586;-43.152;172.732;2023-08-07T00:10:36;14.00;61.10
65826;DHT22;52586;-43.152;172.732;2023-08-07T00:13:07;14.10;61.20
65826;DHT22;52586;-43.152;172.732;2023-08-07T00:15:39;14.10;61.30
65826;DHT22;52586;-43.152;172.732;2023-08-07T00:18:09;14.10;61.30
65826;DHT22;52586;-43.152;172.732;2023-08-07T00:20:42;14.20;61.30
65826;DHT22;52586;-43.152;172.732;2023-08-07T00:23:13;14.20;61.20
65826;DHT22;52586;-43.152;172.732;2023-08-07T00:25:43;14.20;61.10
65826;DHT22;52586;-43.152;172.732;2023-08-07T00:28:14;14.30;61.10
65826;DHT22;52586;-43.152;172.732;2023-08-07T00:30:44;14.30;61.10
65826;DHT22;52586;-43.152;172.732;2023-08-07T00:33:15;14.30;61.00
65826;DHT22;52586;-43.152;172.732;2023-08-07T00:35:47;14.30;60.90
65826;DHT22;52586;-43.152;172.732;2023-08-07T00:38:23;14.40;61.00
65826;DHT22;52586;-43.152;172.732;2023-08-07T00:40:53;14.40;61.00
65826;DHT22;52586;-43.152;172.732;2023-08-07T00:43:24;14.40;61.00
65826;DHT22;52586;-43.152;172.732;2023-08-07T00:45:55;14.40;61.00
65826;DHT22;52586;-43.152;172.732;2023-08-07T00:48:25;14.50;61.50
65826;DHT22;52586;-43.152;172.732;2023-08-07T00:50:59;14.50;61.10
65826;DHT22;52586;-43.152;172.732;2023-08-07T00:53:30;14.50;61.00
65826;DHT22;52586;-43.152;172.732;2023-08-07T00:56:00;14.50;61.00
65826;DHT22;52586;-43.152;172.732;2023-08-07T00:58:31;14.50;60.90
65826;DHT22;52586;-43.152;172.732;2023-08-07T01:01:02;14.60;60.90
65826;DHT22;52586;-43.152;172.732;2023-08-07T01:03:33;14.60;60.90
65826;DHT22;52586;-43.152;172.732;2023-08-07T01:06:05;14.60;60.80
65826;DHT22;52586;-43.152;172.732;2023-08-07T01:08:36;14.60;60.90
65826;DHT22;52586;-43.152;172.732;2023-08-07T01:11:20;14.60;60.90
65826;DHT22;52586;-43.152;172.732;2023-08-07T01:16:47;14.70;60.80
65826;DHT22;52586;-43.152;172.732;2023-08-07T01:19:23;14.70;60.80
65826;DHT22;52586;-43.152;172.732;2023-08-07T01:22:07;14.70;61.00
65826;DHT22;52586;-43.152;172.732;2023-08-07T01:24:38;14.80;61.10
65826;DHT22;52586;-43.152;172.732;2023-08-07T01:27:28;14.80;61.00
65826;DHT22;52586;-43.152;172.732;2023-08-07T01:30:06;14.80;61.00
65826;DHT22;52586;-43.152;172.732;2023-08-07T01:32:52;14.90;61.00
65826;DHT22;52586;-43.152;172.732;2023-08-07T01:35:26;14.90;60.90
65826;DHT22;52586;-43.152;172.732;2023-08-07T01:38:00;14.90;60.80
65826;DHT22;52586;-43.152;172.732;2023-08-07T01:40:31;14.90;60.90
65826;DHT22;52586;-43.152;172.732;2023-08-07T01:43:02;14.90;60.90
65826;DHT22;52586;-43.152;172.732;2023-08-07T01:45:32;15.00;60.90
65826;DHT22;52586;-43.152;172.732;2023-08-07T01:48:03;15.00;60.90
65826;DHT22;52586;-43.152;172.732;2023-08-07T01:50:35;15.00;60.90
65826;DHT22;52586;-43.152;172.732;2023-08-07T01:53:08;15.00;60.90
65826;DHT22;52586;-43.152;172.732;2023-08-07T01:55:38;15.00;60.80
65826;DHT22;52586;-43.152;172.732;2023-08-07T01:58:09;15.10;60.90
65826;DHT22;52586;-43.152;172.732;2023-08-07T02:00:40;15.10;60.90
65826;DHT22;52586;-43.152;172.732;2023-08-07T02:03:10;15.10;60.90
65826;DHT22;52586;-43.152;172.732;2023-08-07T02:05:41;15.20;61.30
65826;DHT22;52586;-43.152;172.732;2023-08-07T02:08:13;15.20;61.40
65826;DHT22;52586;-43.152;172.732;2023-08-07T02:10:45;15.20;61.30
65826;DHT22;52586;-43.152;172.732;2023-08-07T02:13:15;15.30;61.20
65826;DHT22;52586;-43.152;172.732;2023-08-07T02:15:46;15.30;61.10
65826;DHT22;52586;-43.152;172.732;2023-08-07T02:18:16;15.30;61.00
65826;DHT22;52586;-43.152;172.732;2023-08-07T02:20:47;15.40;61.00
65826;DHT22;52586;-43.152;172.732;2023-08-07T02:23:19;15.30;60.90
65826;DHT22;52586;-43.152;172.732;2023-08-07T02:25:51;15.40;60.90
65826;DHT22;52586;-43.152;172.732;2023-08-07T02:28:21;15.40;60.80
65826;DHT22;52586;-43.152;172.732;2023-08-07T02:30:52;15.40;60.80
65826;DHT22;52586;-43.152;172.732;2023-08-07T02:33:23;15.40;60.80
65826;DHT22;52586;-43.152;172.732;2023-08-07T02:35:53;15.40;60.80
65826;DHT22;52586;-43.152;172.732;2023-08-07T02:38:32;15.50;60.70
65826;DHT22;52586;-43.152;172.732;2023-08-07T02:41:03;15.50;60.90
65826;DHT22;52586;-43.152;172.732;2023-08-07T02:43:33;15.50;60.80
65826;DHT22;52586;-43.152;172.732;2023-08-07T02:46:04;15.50;60.70
65826;DHT22;52586;-43.152;172.732;2023-08-07T02:48:35;15.60;60.70
65826;DHT22;52586;-43.152;172.732;2023-08-07T02:51:07;15.60;60.60
65826;DHT22;52586;-43.152;172.732;2023-08-07T02:53:39;15.60;60.50
65826;DHT22;52586;-43.152;172.732;2023-08-07T02:56:10;15.60;60.40
65826;DHT22;52586;-43.152;172.732;2023-08-07T02:58:40;15.60;60.40
65826;DHT22;52586;-43.152;172.732;2023-08-07T03:01:11;15.70;60.40
65826;DHT22;52586;-43.152;172.732;2023-08-07T03:03:42;15.60;60.30
65826;DHT22;52586;-43.152;172.732;2023-08-07T03:06:12;15.70;60.30
65826;DHT22;52586;-43.152;172.732;2023-08-07T03:08:45;15.70;60.30
65826;DHT22;52586;-43.152;172.732;2023-08-07T03:11:15;15.70;60.30
65826;DHT22;52586;-43.152;172.732;2023-08-07T03:13:46;15.70;60.20
65826;DHT22;52586;-43.152;172.732;2023-08-07T03:16:17;15.70;60.30
65826;DHT22;52586;-43.152;172.732;2023-08-07T03:18:47;15.70;60.40
65826;DHT22;52586;-43.152;172.732;2023-08-07T03:21:18;15.80;60.50
65826;DHT22;52586;-43.152;172.732;2023-08-07T03:23:51;15.70;60.40
65826;DHT22;52586;-43.152;172.732;2023-08-07T03:26:22;15.80;60.40
65826;DHT22;52586;-43.152;172.732;2023-08-07T03:28:53;15.80;60.30
65826;DHT22;52586;-43.152;172.732;2023-08-07T03:31:26;15.80;60.30
65826;DHT22;52586;-43.152;172.732;2023-08-07T03:33:57;15.90;61.00
65826;DHT22;52586;-43.152;172.732;2023-08-07T03:36:28;15.90;60.20
65826;DHT22;52586;-43.152;172.732;2023-08-07T03:39:00;15.90;60.20
65826;DHT22;52586;-43.152;172.732;2023-08-07T03:41:31;15.90;60.10
65826;DHT22;52586;-43.152;172.732;2023-08-07T03:44:02;15.90;60.10
65826;DHT22;52586;-43.152;172.732;2023-08-07T03:46:32;15.90;60.10
65826;DHT22;52586;-43.152;172.732;2023-08-07T03:49:03;15.90;60.00
65826;DHT22;52586;-43.152;172.732;2023-08-07T03:51:34;15.90;60.00
65826;DHT22;52586;-43.152;172.732;2023-08-07T03:54:06;15.90;59.90
65826;DHT22;52586;-43.152;172.732;2023-08-07T03:56:37;15.90;59.90
65826;DHT22;52586;-43.152;172.732;2023-08-07T03:59:07;15.90;59.90
65826;DHT22;52586;-43.152;172.732;2023-08-07T04:01:38;16.00;59.90
65826;DHT22;52586;-43.152;172.732;2023-08-07T04:04:08;16.00;59.80
65826;DHT22;52586;-43.152;172.732;2023-08-07T04:06:39;16.00;59.80
65826;DHT22;52586;-43.152;172.732;2023-08-07T04:09:13;16.00;59.70
65826;DHT22;52586;-43.152;172.732;2023-08-07T04:11:44;16.00;59.70
65826;DHT22;52586;-43.152;172.732;2023-08-07T04:14:15;16.00;59.60
65826;DHT22;52586;-43.152;172.732;2023-08-07T04:16:45;16.00;59.50
65826;DHT22;52586;-43.152;172.732;2023-08-07T04:19:16;16.00;59.40
65826;DHT22;52586;-43.152;172.732;2023-08-07T04:21:47;16.00;59.40
65826;DHT22;52586;-43.152;172.732;2023-08-07T04:24:19;16.00;59.30
65826;DHT22;52586;-43.152;172.732;2023-08-07T04:26:50;16.00;59.40
65826;DHT22;52586;-43.152;172.732;2023-08-07T04:29:21;16.00;59.30
65826;DHT22;52586;-43.152;172.732;2023-08-07T04:31:51;16.00;59.20
65826;DHT22;52586;-43.152;172.732;2023-08-07T04:34:22;16.00;59.10
65826;DHT22;52586;-43.152;172.732;2023-08-07T04:36:52;16.00;59.10
65826;DHT22;52586;-43.152;172.732;2023-08-07T04:39:26;16.00;59.10
65826;DHT22;52586;-43.152;172.732;2023-08-07T04:41:56;16.10;59.10
65826;DHT22;52586;-43.152;172.732;2023-08-07T04:44:27;16.10;59.10
65826;DHT22;52586;-43.152;172.732;2023-08-07T04:46:57;16.10;59.00
65826;DHT22;52586;-43.152;172.732;2023-08-07T04:49:28;16.10;59.00
65826;DHT22;52586;-43.152;172.732;2023-08-07T04:51:59;16.10;59.10
65826;DHT22;52586;-43.152;172.732;2023-08-07T04:54:31;16.10;59.10
65826;DHT22;52586;-43.152;172.732;2023-08-07T04:57:02;16.10;59.10
65826;DHT22;52586;-43.152;172.732;2023-08-07T04:59:32;16.10;59.10
65826;DHT22;52586;-43.152;172.732;2023-08-07T05:02:03;16.20;59.10
65826;DHT22;52586;-43.152;172.732;2023-08-07T05:04:34;16.20;59.00
65826;DHT22;52586;-43.152;172.732;2023-08-07T05:07:05;16.20;59.00
65826;DHT22;52586;-43.152;172.732;2023-08-07T05:09:37;16.20;59.00
65826;DHT22;52586;-43.152;172.732;2023-08-07T05:12:08;16.20;59.00
65826;DHT22;52586;-43.152;172.732;2023-08-07T05:14:39;16.20;58.90
65826;DHT22;52586;-43.152;172.732;2023-08-07T05:17:10;16.20;58.90
65826;DHT22;52586;-43.152;172.732;2023-08-07T05:19:40;16.30;58.90
65826;DHT22;52586;-43.152;172.732;2023-08-07T05:22:11;16.30;58.90
65826;DHT22;52586;-43.152;172.732;2023-08-07T05:24:43;16.30;58.90
65826;DHT22;52586;-43.152;172.732;2023-08-07T05:27:16;16.30;58.90
65826;DHT22;52586;-43.152;172.732;2023-08-07T05:29:47;16.30;59.40
65826;DHT22;52586;-43.152;172.732;2023-08-07T05:32:17;16.30;58.80
65826;DHT22;52586;-43.152;172.732;2023-08-07T05:34:48;16.30;58.80
65826;DHT22;52586;-43.152;172.732;2023-08-07T05:37:18;16.30;58.80
65826;DHT22;52586;-43.152;172.732;2023-08-07T05:39:51;16.30;58.80
65826;DHT22;52586;-43.152;172.732;2023-08-07T05:42:22;16.30;58.90
65826;DHT22;52586;-43.152;172.732;2023-08-07T05:44:52;16.30;58.80
65826;DHT22;52586;-43.152;172.732;2023-08-07T05:47:23;16.30;58.70
65826;DHT22;52586;-43.152;172.732;2023-08-07T05:49:53;16.30;58.70
65826;DHT22;52586;-43.152;172.732;2023-08-07T05:52:24;16.30;58.70
65826;DHT22;52586;-43.152;172.732;2023-08-07T05:54:57;16.30;58.60
65826;DHT22;52586;-43.152;172.732;2023-08-07T05:57:27;16.30;58.70
65826;DHT22;52586;-43.152;172.732;2023-08-07T05:59:58;16.30;58.50
65826;DHT22;52586;-43.152;172.732;2023-08-07T06:02:29;16.30;58.50
65826;DHT22;52586;-43.152;172.732;2023-08-07T06:04:59;16.30;59.10
65826;DHT22;52586;-43.152;172.732;2023-08-07T06:07:30;16.30;58.50
65826;DHT22;52586;-43.152;172.732;2023-08-07T06:10:02;16.30;58.50
65826;DHT22;52586;-43.152;172.732;2023-08-07T06:12:33;16.30;58.50
65826;DHT22;52586;-43.152;172.732;2023-08-07T06:15:04;16.30;58.50
65826;DHT22;52586;-43.152;172.732;2023-08-07T06:17:35;16.30;58.50
65826;DHT22;52586;-43.152;172.732;2023-08-07T06:20:08;16.30;58.50
65826;DHT22;52586;-43.152;172.732;2023-08-07T06:22:40;16.30;58.40
65826;DHT22;52586;-43.152;172.732;2023-08-07T06:25:12;16.30;58.30
65826;DHT22;52586;-43.152;172.732;2023-08-07T06:27:43;16.30;58.20
65826;DHT22;52586;-43.152;172.732;2023-08-07T06:30:14;16.30;58.20
65826;DHT22;52586;-43.152;172.732;2023-08-07T06:32:45;16.20;58.10
65826;DHT22;52586;-43.152;172.732;2023-08-07T06:35:16;16.20;58.00
65826;DHT22;52586;-43.152;172.732;2023-08-07T06:37:46;16.20;58.10
65826;DHT22;52586;-43.152;172.732;2023-08-07T06:40:19;16.20;58.00
65826;DHT22;52586;-43.152;172.732;2023-08-07T06:42:49;16.20;58.00
65826;DHT22;52586;-43.152;172.732;2023-08-07T06:45:22;16.20;58.10
65826;DHT22;52586;-43.152;172.732;2023-08-07T06:47:53;16.20;58.10
65826;DHT22;52586;-43.152;172.732;2023-08-07T06:50:23;16.20;58.00
65826;DHT22;52586;-43.152;172.732;2023-08-07T06:52:54;16.20;58.00
65826;DHT22;52586;-43.152;172.732;2023-08-07T06:55:27;16.10;57.90
65826;DHT22;52586;-43.152;172.732;2023-08-07T06:57:57;16.20;58.00
65826;DHT22;52586;-43.152;172.732;2023-08-07T07:00:28;16.20;58.00
65826;DHT22;52586;-43.152;172.732;2023-08-07T07:02:59;16.10;57.90
65826;DHT22;52586;-43.152;172.732;2023-08-07T07:05:29;16.10;57.90
65826;DHT22;52586;-43.152;172.732;2023-08-07T07:08:00;16.10;57.90
65826;DHT22;52586;-43.152;172.732;2023-08-07T07:10:33;16.10;57.90
65826;DHT22;52586;-43.152;172.732;2023-08-07T07:13:03;16.10;57.90
65826;DHT22;52586;-43.152;172.732;2023-08-07T07:15:35;16.10;57.90
65826;DHT22;52586;-43.152;172.732;2023-08-07T07:18:06;16.10;57.90
65826;DHT22;52586;-43.152;172.732;2023-08-07T07:20:36;16.10;57.90
65826;DHT22;52586;-43.152;172.732;2023-08-07T07:23:07;16.10;57.90
65826;DHT22;52586;-43.152;172.732;2023-08-07T07:25:39;16.10;57.90
65826;DHT22;52586;-43.152;172.732;2023-08-07T07:28:10;16.00;57.80
65826;DHT22;52586;-43.152;172.732;2023-08-07T07:30:41;16.00;57.80
65826;DHT22;52586;-43.152;172.732;2023-08-07T07:33:11;16.00;57.90
65826;DHT22;52586;-43.152;172.732;2023-08-07T07:35:42;16.00;57.80
65826;DHT22;52586;-43.152;172.732;2023-08-07T07:38:13;16.00;57.80
65826;DHT22;52586;-43.152;172.732;2023-08-07T07:40:46;16.00;57.80
65826;DHT22;52586;-43.152;172.732;2023-08-07T07:43:16;16.00;57.80
65826;DHT22;52586;-43.152;172.732;2023-08-07T07:45:47;16.00;57.90
65826;DHT22;52586;-43.152;172.732;2023-08-07T07:48:17;16.00;57.90
65826;DHT22;52586;-43.152;172.732;2023-08-07T07:50:48;16.00;57.80
65826;DHT22;52586;-43.152;172.732;2023-08-07T07:53:20;16.00;57.80
65826;DHT22;52586;-43.152;172.732;2023-08-07T07:55:53;15.90;57.80
65826;DHT22;52586;-43.152;172.732;2023-08-07T07:58:23;16.00;57.80
65826;DHT22;52586;-43.152;172.732;2023-08-07T08:00:54;15.90;57.80
65826;DHT22;52586;-43.152;172.732;2023-08-07T08:03:25;15.90;57.80
65826;DHT22;52586;-43.152;172.732;2023-08-07T08:05:55;15.90;57.80
65826;DHT22;52586;-43.152;172.732;2023-08-07T08:08:26;15.90;57.80
65826;DHT22;52586;-43.152;172.732;2023-08-07T08:10:59;15.90;57.80
65826;DHT22;52586;-43.152;172.732;2023-08-07T08:13:29;15.90;57.80
65826;DHT22;52586;-43.152;172.732;2023-08-07T08:16:00;15.90;57.80
65826;DHT22;52586;-43.152;172.732;2023-08-07T08:18:30;15.90;57.90
65826;DHT22;52586;-43.152;172.732;2023-08-07T08:21:01;15.90;57.80
65826;DHT22;52586;-43.152;172.732;2023-08-07T08:23:32;15.80;57.80
65826;DHT22;52586;-43.152;172.732;2023-08-07T08:26:04;15.80;57.80
65826;DHT22;52586;-43.152;172.732;2023-08-07T08:28:35;15.90;57.80
65826;DHT22;52586;-43.152;172.732;2023-08-07T08:31:06;15.80;57.80
65826;DHT22;52586;-43.152;172.732;2023-08-07T08:33:37;15.80;57.80
65826;DHT22;52586;-43.152;172.732;2023-08-07T08:36:07;15.80;57.80
65826;DHT22;52586;-43.152;172.732;2023-08-07T08:38:38;15.80;57.80
65826;DHT22;52586;-43.152;172.732;2023-08-07T08:41:11;15.80;57.80
65826;DHT22;52586;-43.152;172.732;2023-08-07T08:43:42;15.80;57.80
65826;DHT22;52586;-43.152;172.732;2023-08-07T08:46:15;15.80;57.60
65826;DHT22;52586;-43.152;172.732;2023-08-07T08:48:50;15.70;56.90
65826;DHT22;52586;-43.152;172.732;2023-08-07T08:51:21;15.70;56.30
65826;DHT22;52586;-43.152;172.732;2023-08-07T08:53:52;15.70;55.90
65826;DHT22;52586;-43.152;172.732;2023-08-07T08:56:26;15.60;55.90
65826;DHT22;52586;-43.152;172.732;2023-08-07T08:58:56;15.50;56.00
65826;DHT22;52586;-43.152;172.732;2023-08-07T09:01:28;15.50;56.30
65826;DHT22;52586;-43.152;172.732;2023-08-07T09:03:59;15.50;56.40
65826;DHT22;52586;-43.152;172.732;2023-08-07T09:06:32;15.50;56.60
65826;DHT22;52586;-43.152;172.732;2023-08-07T09:09:03;15.40;56.60
65826;DHT22;52586;-43.152;172.732;2023-08-07T09:11:37;15.40;56.60
65826;DHT22;52586;-43.152;172.732;2023-08-07T09:14:08;15.40;56.60
65826;DHT22;52586;-43.152;172.732;2023-08-07T09:16:40;15.40;56.70
65826;DHT22;52586;-43.152;172.732;2023-08-07T09:19:11;15.40;56.80
65826;DHT22;52586;-43.152;172.732;2023-08-07T09:21:42;15.40;56.80
65826;DHT22;52586;-43.152;172.732;2023-08-07T09:24:12;15.40;56.80
65826;DHT22;52586;-43.152;172.732;2023-08-07T09:26:48;15.40;56.80
65826;DHT22;52586;-43.152;172.732;2023-08-07T09:29:21;15.40;56.90
65826;DHT22;52586;-43.152;172.732;2023-08-07T09:31:52;15.40;56.90
65826;DHT22;52586;-43.152;172.732;2023-08-07T09:34:24;15.40;56.90
65826;DHT22;52586;-43.152;172.732;2023-08-07T09:36:54;15.50;57.00
65826;DHT22;52586;-43.152;172.732;2023-08-07T09:39:26;15.40;56.90
65826;DHT22;52586;-43.152;172.732;2023-08-07T09:41:59;15.50;57.00
65826;DHT22;52586;-43.152;172.732;2023-08-07T09:44:36;15.50;57.00
65826;DHT22;52586;-43.152;172.732;2023-08-07T09:47:13;15.50;57.10
65826;DHT22;52586;-43.152;172.732;2023-08-07T09:49:44;15.40;57.00
65826;DHT22;52586;-43.152;172.732;2023-08-07T09:52:15;15.40;57.00
65826;DHT22;52586;-43.152;172.732;2023-08-07T09:54:46;15.40;57.00
65826;DHT22;52586;-43.152;172.732;2023-08-07T09:57:19;15.40;57.00
65826;DHT22;52586;-43.152;172.732;2023-08-07T09:59:51;15.50;57.10
65826;DHT22;52586;-43.152;172.732;2023-08-07T10:02:22;15.50;57.10
65826;DHT22;52586;-43.152;172.732;2023-08-07T10:04:54;15.40;57.10
65826;DHT22;52586;-43.152;172.732;2023-08-07T10:07:25;15.50;57.10
65826;DHT22;52586;-43.152;172.732;2023-08-07T10:09:56;15.50;57.10
65826;DHT22;52586;-43.152;172.732;2023-08-07T10:12:30;15.50;57.20
65826;DHT22;52586;-43.152;172.732;2023-08-07T10:15:02;15.50;57.20
65826;DHT22;52586;-43.152;172.732;2023-08-07T10:17:33;15.50;57.20
65826;DHT22;52586;-43.152;172.732;2023-08-07T10:20:04;15.50;57.20
65826;DHT22;52586;-43.152;172.732;2023-08-07T10:22:36;15.50;57.20
65826;DHT22;52586;-43.152;172.732;2023-08-07T10:25:08;15.40;57.20
65826;DHT22;52586;-43.152;172.732;2023-08-07T10:27:42;15.50;57.20
65826;DHT22;52586;-43.152;172.732;2023-08-07T10:30:15;15.40;57.20
65826;DHT22;52586;-43.152;172.732;2023-08-07T10:32:47;15.50;57.20
65826;DHT22;52586;-43.152;172.732;2023-08-07T10:35:31;15.40;57.20
65826;DHT22;52586;-43.152;172.732;2023-08-07T10:38:07;15.40;57.20
65826;DHT22;52586;-43.152;172.732;2023-08-07T10:40:59;15.50;57.20
65826;DHT22;52586;-43.152;172.732;2023-08-07T10:43:37;15.40;57.20
65826;DHT22;52586;-43.152;172.732;2023-08-07T10:46:10;15.40;57.10
65826;DHT22;52586;-43.152;172.732;2023-08-07T10:48:41;15.50;57.20
65826;DHT22;52586;-43.152;172.732;2023-08-07T10:51:14;15.40;57.20
65826;DHT22;52586;-43.152;172.732;2023-08-07T10:53:47;15.40;57.20
65826;DHT22;52586;-43.152;172.732;2023-08-07T10:56:30;15.40;57.20
65826;DHT22;52586;-43.152;172.732;2023-08-07T10:59:09;15.40;57.30
65826;DHT22;52586;-43.152;172.732;2023-08-07T11:01:42;15.40;57.30
65826;DHT22;52586;-43.152;172.732;2023-08-07T11:04:13;15.40;57.20
65826;DHT22;52586;-43.152;172.732;2023-08-07T11:06:47;15.40;57.20
65826;DHT22;52586;-43.152;172.732;2023-08-07T11:09:17;15.40;57.60
65826;DHT22;52586;-43.152;172.732;2023-08-07T11:11:49;15.40;57.30
65826;DHT22;52586;-43.152;172.732;2023-08-07T11:14:21;15.40;57.30
65826;DHT22;52586;-43.152;172.732;2023-08-07T11:16:53;15.40;57.40
65826;DHT22;52586;-43.152;172.732;2023-08-07T11:19:24;15.40;57.30
65826;DHT22;52586;-43.152;172.732;2023-08-07T11:21:55;15.40;57.90
65826;DHT22;52586;-43.152;172.732;2023-08-07T11:24:28;15.40;57.30
65826;DHT22;52586;-43.152;172.732;2023-08-07T11:26:58;15.40;57.30
65826;DHT22;52586;-43.152;172.732;2023-08-07T11:29:33;15.40;57.30
65826;DHT22;52586;-43.152;172.732;2023-08-07T11:32:04;15.40;57.30
65826;DHT22;52586;-43.152;172.732;2023-08-07T11:34:35;15.40;57.30
65826;DHT22;52586;-43.152;172.732;2023-08-07T11:37:06;15.40;57.30
65826;DHT22;52586;-43.152;172.732;2023-08-07T11:39:43;15.40;57.30
65826;DHT22;52586;-43.152;172.732;2023-08-07T11:42:14;15.40;57.40
65826;DHT22;52586;-43.152;172.732;2023-08-07T11:44:47;15.40;57.40
65826;DHT22;52586;-43.152;172.732;2023-08-07T11:47:18;15.40;57.30
65826;DHT22;52586;-43.152;172.732;2023-08-07T11:49:49;15.40;57.30
65826;DHT22;52586;-43.152;172.732;2023-08-07T11:52:22;15.40;57.40
65826;DHT22;52586;-43.152;172.732;2023-08-07T11:54:54;15.40;57.40
65826;DHT22;52586;-43.152;172.732;2023-08-07T11:57:26;15.30;57.60
65826;DHT22;52586;-43.152;172.732;2023-08-07T12:00:00;15.30;57.30
65826;DHT22;52586;-43.152;172.732;2023-08-07T12:02:34;15.30;57.30
65826;DHT22;52586;-43.152;172.732;2023-08-07T12:05:09;15.30;57.30
65826;DHT22;52586;-43.152;172.732;2023-08-07T12:07:40;15.30;57.30
65826;DHT22;52586;-43.152;172.732;2023-08-07T12:10:11;15.30;57.30
65826;DHT22;52586;-43.152;172.732;2023-08-07T12:12:43;15.30;57.30
65826;DHT22;52586;-43.152;172.732;2023-08-07T12:15:17;15.30;57.30
65826;DHT22;52586;-43.152;172.732;2023-08-07T12:17:48;15.30;57.30
65826;DHT22;52586;-43.152;172.732;2023-08-07T12:20:18;15.30;57.30
65826;DHT22;52586;-43.152;172.732;2023-08-07T12:22:49;15.30;57.30
65826;DHT22;52586;-43.152;172.732;2023-08-07T12:25:20;15.30;57.30
65826;DHT22;52586;-43.152;172.732;2023-08-07T12:27:50;15.30;57.30
65826;DHT22;52586;-43.152;172.732;2023-08-07T12:30:23;15.20;57.20
65826;DHT22;52586;-43.152;172.732;2023-08-07T12:32:54;15.20;57.30
65826;DHT22;52586;-43.152;172.732;2023-08-07T12:35:24;15.20;57.20
65826;DHT22;52586;-43.152;172.732;2023-08-07T12:37:55;15.20;57.30
65826;DHT22;52586;-43.152;172.732;2023-08-07T12:40:26;15.20;57.20
65826;DHT22;52586;-43.152;172.732;2023-08-07T12:42:58;15.20;57.20
65826;DHT22;52586;-43.152;172.732;2023-08-07T12:45:30;15.20;57.20
65826;DHT22;52586;-43.152;172.732;2023-08-07T12:48:01;15.20;57.20
65826;DHT22;52586;-43.152;172.732;2023-08-07T12:50:32;15.20;57.20
65826;DHT22;52586;-43.152;172.732;2023-08-07T12:53:03;15.20;57.20
65826;DHT22;52586;-43.152;172.732;2023-08-07T12:55:33;15.20;57.20
65826;DHT22;52586;-43.152;172.732;2023-08-07T12:58:04;15.20;57.20
65826;DHT22;52586;-43.152;172.732;2023-08-07T13:00:36;15.20;57.20
65826;DHT22;52586;-43.152;172.732;2023-08-07T13:03:07;15.10;57.10
65826;DHT22;52586;-43.152;172.732;2023-08-07T13:05:38;15.10;57.20
65826;DHT22;52586;-43.152;172.732;2023-08-07T13:08:08;15.10;57.20
65826;DHT22;52586;-43.152;172.732;2023-08-07T13:10:39;15.10;57.10
65826;DHT22;52586;-43.152;172.732;2023-08-07T13:13:09;15.10;57.10
65826;DHT22;52586;-43.152;172.732;2023-08-07T13:15:42;15.10;57.10
65826;DHT22;52586;-43.152;172.732;2023-08-07T13:18:12;15.10;57.10
65826;DHT22;52586;-43.152;172.732;2023-08-07T13:20:44;15.10;57.10
65826;DHT22;52586;-43.152;172.732;2023-08-07T13:23:15;15.00;57.10
65826;DHT22;52586;-43.152;172.732;2023-08-07T13:25:46;15.00;57.10
65826;DHT22;52586;-43.152;172.732;2023-08-07T13:28:16;15.00;57.10
65826;DHT22;52586;-43.152;172.732;2023-08-07T13:30:49;15.00;57.10
65826;DHT22;52586;-43.152;172.732;2023-08-07T13:33:21;15.00;57.10
65826;DHT22;52586;-43.152;172.732;2023-08-07T13:35:52;15.00;57.10
65826;DHT22;52586;-43.152;172.732;2023-08-07T13:38:22;15.00;57.10
65826;DHT22;52586;-43.152;172.732;2023-08-07T13:40:53;15.00;57.10
65826;DHT22;52586;-43.152;172.732;2023-08-07T13:43:24;15.00;57.10
65826;DHT22;52586;-43.152;172.732;2023-08-07T13:45:56;15.00;57.10
65826;DHT22;52586;-43.152;172.732;2023-08-07T13:48:27;14.90;57.00
65826;DHT22;52586;-43.152;172.732;2023-08-07T13:50:57;14.90;57.00
65826;DHT22;52586;-43.152;172.732;2023-08-07T13:53:32;14.90;57.10
65826;DHT22;52586;-43.152;172.732;2023-08-07T13:56:02;14.90;57.00
65826;DHT22;52586;-43.152;172.732;2023-08-07T13:58:34;14.90;57.00
65826;DHT22;52586;-43.152;172.732;2023-08-07T14:01:06;14.90;57.00
65826;DHT22;52586;-43.152;172.732;2023-08-07T14:03:37;14.90;57.00
65826;DHT22;52586;-43.152;172.732;2023-08-07T14:06:08;14.90;57.00
65826;DHT22;52586;-43.152;172.732;2023-08-07T14:08:38;14.80;57.00
65826;DHT22;52586;-43.152;172.732;2023-08-07T14:11:09;14.80;57.00
65826;DHT22;52586;-43.152;172.732;2023-08-07T14:13:42;14.80;57.00
65826;DHT22;52586;-43.152;172.732;2023-08-07T14:16:15;14.80;57.00
65826;DHT22;52586;-43.152;172.732;2023-08-07T14:18:46;14.80;57.00
65826;DHT22;52586;-43.152;172.732;2023-08-07T14:21:16;14.80;57.00
65826;DHT22;52586;-43.152;172.732;2023-08-07T14:23:47;14.80;57.00
65826;DHT22;52586;-43.152;172.732;2023-08-07T14:26:18;14.80;57.00
65826;DHT22;52586;-43.152;172.732;2023-08-07T14:28:48;14.80;57.00
65826;DHT22;52586;-43.152;172.732;2023-08-07T14:31:21;14.70;56.90
65826;DHT22;52586;-43.152;172.732;2023-08-07T14:33:52;14.70;56.90
65826;DHT22;52586;-43.152;172.732;2023-08-07T14:36:22;14.70;56.90
65826;DHT22;52586;-43.152;172.732;2023-08-07T14:38:53;14.70;56.90
65826;DHT22;52586;-43.152;172.732;2023-08-07T14:41:23;14.70;56.90
65826;DHT22;52586;-43.152;172.732;2023-08-07T14:43:54;14.70;56.90
65826;DHT22;52586;-43.152;172.732;2023-08-07T14:46:27;14.70;56.90
65826;DHT22;52586;-43.152;172.732;2023-08-07T14:48:57;14.70;56.90
65826;DHT22;52586;-43.152;172.732;2023-08-07T14:51:28;14.70;56.90
65826;DHT22;52586;-43.152;172.732;2023-08-07T14:53:58;14.60;56.80
65826;DHT22;52586;-43.152;172.732;2023-08-07T14:56:29;14.60;56.80
65826;DHT22;52586;-43.152;172.732;2023-08-07T14:59:00;14.60;56.80
65826;DHT22;52586;-43.152;172.732;2023-08-07T15:01:32;14.60;56.90
65826;DHT22;52586;-43.152;172.732;2023-08-07T15:04:03;14.60;56.80
65826;DHT22;52586;-43.152;172.732;2023-08-07T15:06:33;14.60;56.80
65826;DHT22;52586;-43.152;172.732;2023-08-07T15:09:04;14.50;56.80
65826;DHT22;52586;-43.152;172.732;2023-08-07T15:11:35;14.50;56.80
65826;DHT22;52586;-43.152;172.732;2023-08-07T15:14:05;14.50;56.80
65826;DHT22;52586;-43.152;172.732;2023-08-07T15:16:38;14.50;56.80